Rockport, MA (01966)

12:03 AM EDT on March 29, 2015 (GMT -0400)
KMAROCKP3 | | Change Station
CLOSE
Current Station
Personal Weather Station
Location: Rockport, MA
Elevation: 53 ft
Nearby Weather Stations

Elev 53 ft 42.66 °N, 70.61 °W | Updated 10 seconds ago

Overcast
Overcast
32.2 °F
Feels Like 25 °F
N
8.0
Wind Variable Wind from NW
Gusts 15.0 mph

Today
High -- | Low -- °F
--% Chance of Precip.
Yesterday
High -- | Low -- °F
Precip. -- in
6:30 AM 7:04 PM
Waxing Gibbous, 68% visible
Pressure 30.00 in
Visibility 10.0 miles
Clouds Overcast 6000 ft
Windchill 25 °F
Dew Point 24 °F
Humidity 73%
Rainfall 0.04 in
Snow Depth Not available.
UV 0 out of 12
Pollen .90 out of 12
Air Quality Not available.
Flu Activity Not available.
METAR KBVY 290353Z AUTO 32009KT 10SM OVC060 M01/M08 A3001 RMK AO2 SLP159 T10061078

More Conditions Fewer Conditions

Pressure 30.00 in
Visibility 10.0 miles
Clouds Overcast 6000 ft
Windchill 25 °F
Dew Point 24 °F
Humidity 73%
Rainfall 0.04 in
Snow Depth Not available.
UV 0 out of 12
Pollen .90 out of 12
Air Quality Not available.
Flu Activity Not available.
METAR KBVY 290353Z AUTO 32009KT 10SM OVC060 M01/M08 A3001 RMK AO2 SLP159 T10061078

More Conditions Fewer Conditions

10-Day Weather Forecast

Almanac

Astronomy

Mar. 29, 2015 Rise Set
Actual Time
Civil Twilight
Nautical Twilight
Astronomical Twilight
Moon
Length of Visible Light
Length of Day
Tomorrow will be .
, % of the Moon is Illuminated

Today's Extremes

State Highs State Lows

Community

WunderPhotos

Upload Photos

1,809,180 photos uploaded!

WunderBlogs® & News

Nearby

Air Quality

  Air Quality AQ Index Pollutant
Not available.

Snow Depth

Station Depth Elevation

Earthquake Activity

City Distance Mag. Time & Date
Minimum magnitude displayed is 2.5.

Coastal Water Temperatures

Place Temperature

Stations

Nearby Weather Stations

Station Location Temp. Windchill Dew Point Humidity Wind Precip. Elev Updated Type